sensor_id;sensor_type;location;lat;lon;timestamp;P1;durP1;ratioP1;P2;durP2;ratioP2
46266;SDS011;31998;48.798;15.066;2022-12-22T00:02:13;36.27;;;13.17;;
46266;SDS011;31998;48.798;15.066;2022-12-22T00:05:00;29.67;;;13.43;;
46266;SDS011;31998;48.798;15.066;2022-12-22T00:07:45;28.90;;;12.83;;
46266;SDS011;31998;48.798;15.066;2022-12-22T00:10:28;41.03;;;12.30;;
46266;SDS011;31998;48.798;15.066;2022-12-22T00:13:12;41.83;;;13.10;;
46266;SDS011;31998;48.798;15.066;2022-12-22T00:15:58;29.47;;;11.70;;
46266;SDS011;31998;48.798;15.066;2022-12-22T00:18:42;19.70;;;10.60;;
46266;SDS011;31998;48.798;15.066;2022-12-22T00:21:27;25.57;;;15.47;;
46266;SDS011;31998;48.798;15.066;2022-12-22T00:24:13;37.43;;;15.47;;
46266;SDS011;31998;48.798;15.066;2022-12-22T00:26:57;25.57;;;13.90;;
46266;SDS011;31998;48.798;15.066;2022-12-22T00:29:41;42.33;;;14.00;;
46266;SDS011;31998;48.798;15.066;2022-12-22T00:32:27;31.47;;;11.43;;
46266;SDS011;31998;48.798;15.066;2022-12-22T00:35:17;20.77;;;9.43;;
46266;SDS011;31998;48.798;15.066;2022-12-22T00:38:22;20.93;;;10.77;;
46266;SDS011;31998;48.798;15.066;2022-12-22T00:41:06;27.43;;;12.27;;
46266;SDS011;31998;48.798;15.066;2022-12-22T00:43:50;41.47;;;10.20;;
46266;SDS011;31998;48.798;15.066;2022-12-22T00:46:34;33.60;;;10.47;;
46266;SDS011;31998;48.798;15.066;2022-12-22T00:49:22;23.40;;;9.90;;
46266;SDS011;31998;48.798;15.066;2022-12-22T00:52:09;31.83;;;10.77;;
46266;SDS011;31998;48.798;15.066;2022-12-22T00:54:54;26.40;;;11.10;;
46266;SDS011;31998;48.798;15.066;2022-12-22T00:57:38;23.60;;;9.70;;
46266;SDS011;31998;48.798;15.066;2022-12-22T01:00:23;29.90;;;10.00;;
46266;SDS011;31998;48.798;15.066;2022-12-22T01:03:07;31.50;;;10.33;;
46266;SDS011;31998;48.798;15.066;2022-12-22T01:05:53;24.93;;;9.03;;
46266;SDS011;31998;48.798;15.066;2022-12-22T01:08:38;13.40;;;7.93;;
46266;SDS011;31998;48.798;15.066;2022-12-22T01:11:22;18.90;;;8.90;;
46266;SDS011;31998;48.798;15.066;2022-12-22T01:14:12;19.57;;;8.83;;
46266;SDS011;31998;48.798;15.066;2022-12-22T01:16:58;15.90;;;6.93;;
46266;SDS011;31998;48.798;15.066;2022-12-22T01:19:42;14.97;;;7.80;;
46266;SDS011;31998;48.798;15.066;2022-12-22T01:22:26;36.70;;;10.57;;
46266;SDS011;31998;48.798;15.066;2022-12-22T01:25:16;33.53;;;12.40;;
46266;SDS011;31998;48.798;15.066;2022-12-22T01:28:02;67.00;;;22.20;;
46266;SDS011;31998;48.798;15.066;2022-12-22T01:30:46;76.33;;;24.23;;
46266;SDS011;31998;48.798;15.066;2022-12-22T01:33:30;44.00;;;19.00;;
46266;SDS011;31998;48.798;15.066;2022-12-22T01:36:14;48.43;;;18.83;;
46266;SDS011;31998;48.798;15.066;2022-12-22T01:38:59;66.40;;;20.33;;
46266;SDS011;31998;48.798;15.066;2022-12-22T01:41:43;86.17;;;27.33;;
46266;SDS011;31998;48.798;15.066;2022-12-22T01:44:28;43.73;;;11.93;;
46266;SDS011;31998;48.798;15.066;2022-12-22T01:50:14;92.50;;;14.60;;
46266;SDS011;31998;48.798;15.066;2022-12-22T01:53:02;33.63;;;11.70;;
46266;SDS011;31998;48.798;15.066;2022-12-22T01:55:49;18.43;;;9.03;;
46266;SDS011;31998;48.798;15.066;2022-12-22T01:58:34;19.37;;;7.93;;
46266;SDS011;31998;48.798;15.066;2022-12-22T02:01:23;18.60;;;8.73;;
46266;SDS011;31998;48.798;15.066;2022-12-22T02:04:07;17.50;;;8.90;;
46266;SDS011;31998;48.798;15.066;2022-12-22T02:06:52;401.50;;;22.03;;
46266;SDS011;31998;48.798;15.066;2022-12-22T02:09:48;111.10;;;10.80;;
46266;SDS011;31998;48.798;15.066;2022-12-22T02:12:49;190.37;;;18.07;;
46266;SDS011;31998;48.798;15.066;2022-12-22T02:15:50;65.57;;;10.10;;
46266;SDS011;31998;48.798;15.066;2022-12-22T02:21:59;82.03;;;8.87;;
46266;SDS011;31998;48.798;15.066;2022-12-22T02:25:00;150.37;;;12.40;;
46266;SDS011;31998;48.798;15.066;2022-12-22T02:27:48;117.93;;;11.83;;
46266;SDS011;31998;48.798;15.066;2022-12-22T02:30:33;18.23;;;8.43;;
46266;SDS011;31998;48.798;15.066;2022-12-22T02:33:18;19.03;;;8.90;;
46266;SDS011;31998;48.798;15.066;2022-12-22T02:46:09;32.33;;;9.07;;
46266;SDS011;31998;48.798;15.066;2022-12-22T02:48:57;27.77;;;9.70;;
46266;SDS011;31998;48.798;15.066;2022-12-22T02:51:49;23.73;;;10.20;;
46266;SDS011;31998;48.798;15.066;2022-12-22T02:54:40;18.77;;;9.53;;
46266;SDS011;31998;48.798;15.066;2022-12-22T02:57:25;25.27;;;9.20;;
46266;SDS011;31998;48.798;15.066;2022-12-22T03:00:09;34.53;;;10.30;;
46266;SDS011;31998;48.798;15.066;2022-12-22T03:02:54;17.57;;;8.70;;
46266;SDS011;31998;48.798;15.066;2022-12-22T03:05:37;18.17;;;8.50;;
46266;SDS011;31998;48.798;15.066;2022-12-22T03:08:21;19.33;;;8.63;;
46266;SDS011;31998;48.798;15.066;2022-12-22T03:11:05;67.43;;;11.13;;
46266;SDS011;31998;48.798;15.066;2022-12-22T03:13:49;21.23;;;8.77;;
46266;SDS011;31998;48.798;15.066;2022-12-22T03:16:32;16.33;;;8.23;;
46266;SDS011;31998;48.798;15.066;2022-12-22T03:19:16;12.10;;;8.00;;
46266;SDS011;31998;48.798;15.066;2022-12-22T03:22:00;13.27;;;7.77;;
46266;SDS011;31998;48.798;15.066;2022-12-22T03:24:44;10.20;;;7.20;;
46266;SDS011;31998;48.798;15.066;2022-12-22T03:27:27;20.87;;;9.30;;
46266;SDS011;31998;48.798;15.066;2022-12-22T03:29:53;15.93;;;8.37;;
46266;SDS011;31998;48.798;15.066;2022-12-22T03:32:18;12.30;;;7.73;;
46266;SDS011;31998;48.798;15.066;2022-12-22T03:34:44;20.23;;;9.20;;
46266;SDS011;31998;48.798;15.066;2022-12-22T03:37:09;13.80;;;8.53;;
46266;SDS011;31998;48.798;15.066;2022-12-22T03:39:35;8.53;;;6.70;;
46266;SDS011;31998;48.798;15.066;2022-12-22T03:42:00;10.17;;;6.83;;
46266;SDS011;31998;48.798;15.066;2022-12-22T03:44:44;9.30;;;6.37;;
46266;SDS011;31998;48.798;15.066;2022-12-22T03:47:29;4.90;;;4.37;;
46266;SDS011;31998;48.798;15.066;2022-12-22T03:49:55;6.27;;;5.57;;
46266;SDS011;31998;48.798;15.066;2022-12-22T03:52:20;9.00;;;4.93;;
46266;SDS011;31998;48.798;15.066;2022-12-22T03:54:46;4.70;;;4.20;;
46266;SDS011;31998;48.798;15.066;2022-12-22T03:57:11;8.23;;;5.37;;
46266;SDS011;31998;48.798;15.066;2022-12-22T03:59:37;5.37;;;4.40;;
46266;SDS011;31998;48.798;15.066;2022-12-22T04:02:02;5.27;;;4.60;;
46266;SDS011;31998;48.798;15.066;2022-12-22T04:04:27;5.77;;;4.20;;
46266;SDS011;31998;48.798;15.066;2022-12-22T04:06:53;10.47;;;5.10;;
46266;SDS011;31998;48.798;15.066;2022-12-22T04:09:19;6.07;;;5.47;;
46266;SDS011;31998;48.798;15.066;2022-12-22T04:11:46;6.73;;;4.90;;
46266;SDS011;31998;48.798;15.066;2022-12-22T04:14:30;6.40;;;4.93;;
46266;SDS011;31998;48.798;15.066;2022-12-22T04:16:55;5.00;;;4.57;;
46266;SDS011;31998;48.798;15.066;2022-12-22T04:19:20;5.57;;;5.10;;
46266;SDS011;31998;48.798;15.066;2022-12-22T04:21:46;4.17;;;3.63;;
46266;SDS011;31998;48.798;15.066;2022-12-22T04:24:11;7.27;;;4.10;;
46266;SDS011;31998;48.798;15.066;2022-12-22T04:26:37;5.27;;;4.70;;
46266;SDS011;31998;48.798;15.066;2022-12-22T04:29:03;4.17;;;3.90;;
46266;SDS011;31998;48.798;15.066;2022-12-22T04:31:28;4.40;;;4.07;;
46266;SDS011;31998;48.798;15.066;2022-12-22T04:33:54;5.33;;;4.17;;
46266;SDS011;31998;48.798;15.066;2022-12-22T04:36:19;5.33;;;4.83;;
46266;SDS011;31998;48.798;15.066;2022-12-22T04:38:45;4.47;;;4.17;;
46266;SDS011;31998;48.798;15.066;2022-12-22T04:41:10;4.40;;;4.03;;
46266;SDS011;31998;48.798;15.066;2022-12-22T04:43:36;4.47;;;3.93;;
46266;SDS011;31998;48.798;15.066;2022-12-22T04:46:01;5.10;;;4.70;;
46266;SDS011;31998;48.798;15.066;2022-12-22T04:48:28;9.60;;;5.80;;
46266;SDS011;31998;48.798;15.066;2022-12-22T04:50:55;5.87;;;4.60;;
46266;SDS011;31998;48.798;15.066;2022-12-22T04:53:22;6.20;;;5.07;;
46266;SDS011;31998;48.798;15.066;2022-12-22T04:55:49;12.80;;;8.30;;
46266;SDS011;31998;48.798;15.066;2022-12-22T04:58:18;7.70;;;6.67;;
46266;SDS011;31998;48.798;15.066;2022-12-22T05:00:43;10.57;;;7.70;;
46266;SDS011;31998;48.798;15.066;2022-12-22T05:03:09;7.50;;;6.80;;
46266;SDS011;31998;48.798;15.066;2022-12-22T05:05:34;8.07;;;6.73;;
46266;SDS011;31998;48.798;15.066;2022-12-22T05:08:01;6.00;;;5.50;;
46266;SDS011;31998;48.798;15.066;2022-12-22T05:10:26;4.60;;;4.20;;
46266;SDS011;31998;48.798;15.066;2022-12-22T05:12:52;5.30;;;4.80;;
46266;SDS011;31998;48.798;15.066;2022-12-22T05:15:20;5.37;;;4.83;;
46266;SDS011;31998;48.798;15.066;2022-12-22T05:17:46;7.83;;;5.93;;
46266;SDS011;31998;48.798;15.066;2022-12-22T05:20:12;5.27;;;4.50;;
46266;SDS011;31998;48.798;15.066;2022-12-22T05:22:37;4.70;;;4.30;;
46266;SDS011;31998;48.798;15.066;2022-12-22T05:25:03;5.90;;;5.43;;
46266;SDS011;31998;48.798;15.066;2022-12-22T05:27:28;9.57;;;7.60;;
46266;SDS011;31998;48.798;15.066;2022-12-22T05:29:54;12.10;;;7.97;;
46266;SDS011;31998;48.798;15.066;2022-12-22T05:32:19;9.17;;;7.67;;
46266;SDS011;31998;48.798;15.066;2022-12-22T05:34:44;10.80;;;9.27;;
46266;SDS011;31998;48.798;15.066;2022-12-22T05:37:10;12.60;;;8.27;;
46266;SDS011;31998;48.798;15.066;2022-12-22T05:39:35;13.63;;;8.77;;
46266;SDS011;31998;48.798;15.066;2022-12-22T05:42:01;19.43;;;12.57;;
46266;SDS011;31998;48.798;15.066;2022-12-22T05:44:26;20.47;;;11.63;;
46266;SDS011;31998;48.798;15.066;2022-12-22T05:46:52;6.17;;;5.57;;
46266;SDS011;31998;48.798;15.066;2022-12-22T05:49:17;6.70;;;6.10;;
46266;SDS011;31998;48.798;15.066;2022-12-22T05:51:43;7.27;;;5.97;;
46266;SDS011;31998;48.798;15.066;2022-12-22T05:54:09;11.53;;;8.63;;
46266;SDS011;31998;48.798;15.066;2022-12-22T05:56:35;7.27;;;6.37;;
46266;SDS011;31998;48.798;15.066;2022-12-22T05:59:01;8.40;;;6.40;;
46266;SDS011;31998;48.798;15.066;2022-12-22T06:01:26;7.73;;;6.37;;
46266;SDS011;31998;48.798;15.066;2022-12-22T06:03:51;6.50;;;5.60;;
46266;SDS011;31998;48.798;15.066;2022-12-22T06:06:17;6.90;;;4.87;;
46266;SDS011;31998;48.798;15.066;2022-12-22T06:08:42;5.83;;;4.77;;
46266;SDS011;31998;48.798;15.066;2022-12-22T06:11:07;4.83;;;4.43;;
46266;SDS011;31998;48.798;15.066;2022-12-22T06:13:35;3.30;;;3.20;;
46266;SDS011;31998;48.798;15.066;2022-12-22T06:16:00;4.00;;;3.70;;
46266;SDS011;31998;48.798;15.066;2022-12-22T06:18:26;3.63;;;3.33;;
46266;SDS011;31998;48.798;15.066;2022-12-22T06:20:52;4.60;;;4.30;;
46266;SDS011;31998;48.798;15.066;2022-12-22T06:23:18;3.60;;;3.30;;
46266;SDS011;31998;48.798;15.066;2022-12-22T06:25:54;3.80;;;3.50;;
46266;SDS011;31998;48.798;15.066;2022-12-22T06:28:24;3.07;;;2.93;;
46266;SDS011;31998;48.798;15.066;2022-12-22T06:30:50;3.20;;;3.00;;
46266;SDS011;31998;48.798;15.066;2022-12-22T06:33:15;3.73;;;3.53;;
46266;SDS011;31998;48.798;15.066;2022-12-22T06:35:41;6.00;;;3.40;;
46266;SDS011;31998;48.798;15.066;2022-12-22T06:38:06;3.03;;;2.93;;
46266;SDS011;31998;48.798;15.066;2022-12-22T06:40:31;5.17;;;3.77;;
46266;SDS011;31998;48.798;15.066;2022-12-22T06:42:57;3.47;;;3.27;;
46266;SDS011;31998;48.798;15.066;2022-12-22T06:45:38;3.47;;;3.13;;
46266;SDS011;31998;48.798;15.066;2022-12-22T06:48:05;3.93;;;3.57;;
46266;SDS011;31998;48.798;15.066;2022-12-22T06:50:32;3.27;;;3.17;;
46266;SDS011;31998;48.798;15.066;2022-12-22T06:52:57;2.33;;;2.23;;
46266;SDS011;31998;48.798;15.066;2022-12-22T06:55:23;2.70;;;2.50;;
46266;SDS011;31998;48.798;15.066;2022-12-22T06:57:48;4.33;;;3.23;;
46266;SDS011;31998;48.798;15.066;2022-12-22T07:00:14;3.20;;;3.07;;
46266;SDS011;31998;48.798;15.066;2022-12-22T07:02:39;2.10;;;1.90;;
46266;SDS011;31998;48.798;15.066;2022-12-22T07:05:05;9.87;;;3.83;;
46266;SDS011;31998;48.798;15.066;2022-12-22T07:07:30;4.67;;;4.30;;
46266;SDS011;31998;48.798;15.066;2022-12-22T07:09:56;10.23;;;6.93;;
46266;SDS011;31998;48.798;15.066;2022-12-22T07:12:22;8.77;;;7.93;;
46266;SDS011;31998;48.798;15.066;2022-12-22T07:14:48;6.07;;;5.57;;
46266;SDS011;31998;48.798;15.066;2022-12-22T07:17:13;4.70;;;3.40;;
46266;SDS011;31998;48.798;15.066;2022-12-22T07:19:39;3.03;;;2.83;;
46266;SDS011;31998;48.798;15.066;2022-12-22T07:22:04;2.87;;;2.70;;
46266;SDS011;31998;48.798;15.066;2022-12-22T07:24:29;2.73;;;2.60;;
46266;SDS011;31998;48.798;15.066;2022-12-22T07:26:55;4.00;;;3.00;;
46266;SDS011;31998;48.798;15.066;2022-12-22T07:29:20;3.27;;;3.17;;
46266;SDS011;31998;48.798;15.066;2022-12-22T07:31:46;3.30;;;3.20;;
46266;SDS011;31998;48.798;15.066;2022-12-22T07:34:11;2.60;;;2.50;;
46266;SDS011;31998;48.798;15.066;2022-12-22T07:36:37;5.77;;;3.23;;
46266;SDS011;31998;48.798;15.066;2022-12-22T07:39:02;2.80;;;2.70;;
46266;SDS011;31998;48.798;15.066;2022-12-22T07:41:28;3.00;;;2.80;;
46266;SDS011;31998;48.798;15.066;2022-12-22T07:44:11;2.43;;;2.33;;
46266;SDS011;31998;48.798;15.066;2022-12-22T07:46:37;2.57;;;2.40;;
46266;SDS011;31998;48.798;15.066;2022-12-22T07:49:03;2.50;;;2.40;;
46266;SDS011;31998;48.798;15.066;2022-12-22T07:51:48;3.20;;;2.83;;
46266;SDS011;31998;48.798;15.066;2022-12-22T07:54:14;2.97;;;2.67;;
46266;SDS011;31998;48.798;15.066;2022-12-22T07:56:40;2.30;;;2.20;;
46266;SDS011;31998;48.798;15.066;2022-12-22T07:59:07;2.63;;;2.13;;
46266;SDS011;31998;48.798;15.066;2022-12-22T08:01:32;3.40;;;2.30;;
46266;SDS011;31998;48.798;15.066;2022-12-22T08:03:58;7.43;;;2.70;;
46266;SDS011;31998;48.798;15.066;2022-12-22T08:06:24;2.10;;;2.00;;
46266;SDS011;31998;48.798;15.066;2022-12-22T08:08:50;2.53;;;2.33;;
46266;SDS011;31998;48.798;15.066;2022-12-22T08:11:15;7.27;;;3.00;;
46266;SDS011;31998;48.798;15.066;2022-12-22T08:13:41;2.73;;;2.50;;
46266;SDS011;31998;48.798;15.066;2022-12-22T08:16:08;4.73;;;2.47;;
46266;SDS011;31998;48.798;15.066;2022-12-22T08:18:35;10.40;;;2.97;;
46266;SDS011;31998;48.798;15.066;2022-12-22T08:21:02;3.03;;;2.83;;
46266;SDS011;31998;48.798;15.066;2022-12-22T08:23:28;2.70;;;2.50;;
46266;SDS011;31998;48.798;15.066;2022-12-22T08:25:55;2.60;;;2.17;;
46266;SDS011;31998;48.798;15.066;2022-12-22T08:28:37;3.10;;;2.50;;
46266;SDS011;31998;48.798;15.066;2022-12-22T08:31:08;2.70;;;2.50;;
46266;SDS011;31998;48.798;15.066;2022-12-22T08:33:35;2.70;;;2.50;;
46266;SDS011;31998;48.798;15.066;2022-12-22T08:36:01;2.40;;;2.30;;
46266;SDS011;31998;48.798;15.066;2022-12-22T08:38:27;6.43;;;3.67;;
46266;SDS011;31998;48.798;15.066;2022-12-22T08:40:54;5.40;;;3.37;;
46266;SDS011;31998;48.798;15.066;2022-12-22T08:43:20;3.43;;;3.10;;
46266;SDS011;31998;48.798;15.066;2022-12-22T08:45:45;7.43;;;2.60;;
46266;SDS011;31998;48.798;15.066;2022-12-22T08:48:11;3.70;;;3.00;;
46266;SDS011;31998;48.798;15.066;2022-12-22T08:50:36;3.43;;;3.17;;
46266;SDS011;31998;48.798;15.066;2022-12-22T08:53:05;2.70;;;2.50;;
46266;SDS011;31998;48.798;15.066;2022-12-22T08:55:32;6.00;;;2.40;;
46266;SDS011;31998;48.798;15.066;2022-12-22T08:57:57;3.03;;;2.80;;
46266;SDS011;31998;48.798;15.066;2022-12-22T09:00:23;2.63;;;2.43;;
46266;SDS011;31998;48.798;15.066;2022-12-22T09:02:49;3.40;;;2.97;;
46266;SDS011;31998;48.798;15.066;2022-12-22T09:05:15;4.53;;;2.67;;
46266;SDS011;31998;48.798;15.066;2022-12-22T09:07:41;2.70;;;2.50;;
46266;SDS011;31998;48.798;15.066;2022-12-22T09:10:07;3.13;;;2.43;;
46266;SDS011;31998;48.798;15.066;2022-12-22T09:12:34;2.97;;;2.60;;
46266;SDS011;31998;48.798;15.066;2022-12-22T09:14:59;3.27;;;2.10;;
46266;SDS011;31998;48.798;15.066;2022-12-22T09:17:25;7.80;;;2.77;;
46266;SDS011;31998;48.798;15.066;2022-12-22T09:19:50;11.00;;;5.03;;
46266;SDS011;31998;48.798;15.066;2022-12-22T09:22:16;28.80;;;13.20;;
46266;SDS011;31998;48.798;15.066;2022-12-22T09:24:41;29.03;;;13.77;;
46266;SDS011;31998;48.798;15.066;2022-12-22T09:27:06;5.30;;;4.80;;
46266;SDS011;31998;48.798;15.066;2022-12-22T09:29:33;8.50;;;5.00;;
46266;SDS011;31998;48.798;15.066;2022-12-22T09:31:59;6.97;;;4.30;;
46266;SDS011;31998;48.798;15.066;2022-12-22T09:34:24;4.47;;;2.90;;
46266;SDS011;31998;48.798;15.066;2022-12-22T09:36:50;2.50;;;2.40;;
46266;SDS011;31998;48.798;15.066;2022-12-22T09:39:15;2.70;;;2.50;;
46266;SDS011;31998;48.798;15.066;2022-12-22T09:44:24;3.40;;;3.10;;
46266;SDS011;31998;48.798;15.066;2022-12-22T09:46:52;4.73;;;3.40;;
46266;SDS011;31998;48.798;15.066;2022-12-22T09:49:19;3.00;;;2.80;;
46266;SDS011;31998;48.798;15.066;2022-12-22T09:51:50;4.37;;;2.30;;
46266;SDS011;31998;48.798;15.066;2022-12-22T09:54:19;7.40;;;3.27;;
46266;SDS011;31998;48.798;15.066;2022-12-22T09:56:45;3.00;;;2.80;;
46266;SDS011;31998;48.798;15.066;2022-12-22T09:59:11;4.50;;;3.37;;
46266;SDS011;31998;48.798;15.066;2022-12-22T10:07:35;5.60;;;3.30;;
46266;SDS011;31998;48.798;15.066;2022-12-22T10:10:23;7.93;;;5.20;;
46266;SDS011;31998;48.798;15.066;2022-12-22T10:12:53;2.57;;;2.37;;
46266;SDS011;31998;48.798;15.066;2022-12-22T10:15:20;5.87;;;1.70;;
46266;SDS011;31998;48.798;15.066;2022-12-22T10:17:48;6.07;;;3.37;;
46266;SDS011;31998;48.798;15.066;2022-12-22T10:20:22;8.97;;;3.77;;
46266;SDS011;31998;48.798;15.066;2022-12-22T10:22:51;12.03;;;5.07;;
46266;SDS011;31998;48.798;15.066;2022-12-22T10:25:35;10.07;;;4.70;;
46266;SDS011;31998;48.798;15.066;2022-12-22T10:28:02;6.03;;;3.20;;
46266;SDS011;31998;48.798;15.066;2022-12-22T10:30:31;8.03;;;2.40;;
46266;SDS011;31998;48.798;15.066;2022-12-22T10:33:04;2.37;;;2.17;;
46266;SDS011;31998;48.798;15.066;2022-12-22T10:35:48;4.03;;;1.73;;
46266;SDS011;31998;48.798;15.066;2022-12-22T10:40:45;6.73;;;1.47;;
46266;SDS011;31998;48.798;15.066;2022-12-22T10:43:22;7.93;;;2.00;;
46266;SDS011;31998;48.798;15.066;2022-12-22T10:45:51;3.60;;;2.50;;
46266;SDS011;31998;48.798;15.066;2022-12-22T10:48:30;3.70;;;2.80;;
46266;SDS011;31998;48.798;15.066;2022-12-22T10:50:58;6.90;;;4.80;;
46266;SDS011;31998;48.798;15.066;2022-12-22T10:53:37;1.40;;;1.40;;
46266;SDS011;31998;48.798;15.066;2022-12-22T10:56:06;2.30;;;1.87;;
46266;SDS011;31998;48.798;15.066;2022-12-22T11:01:21;3.00;;;2.70;;
46266;SDS011;31998;48.798;15.066;2022-12-22T11:03:51;2.83;;;2.30;;
46266;SDS011;31998;48.798;15.066;2022-12-22T11:06:17;1.83;;;1.73;;
46266;SDS011;31998;48.798;15.066;2022-12-22T11:08:43;4.10;;;2.60;;
46266;SDS011;31998;48.798;15.066;2022-12-22T11:11:10;14.73;;;2.17;;
46266;SDS011;31998;48.798;15.066;2022-12-22T11:13:45;10.57;;;2.60;;
46266;SDS011;31998;48.798;15.066;2022-12-22T11:30:08;7.43;;;2.40;;
46266;SDS011;31998;48.798;15.066;2022-12-22T11:35:34;3.00;;;1.47;;
46266;SDS011;31998;48.798;15.066;2022-12-22T11:40:57;9.43;;;6.63;;
46266;SDS011;31998;48.798;15.066;2022-12-22T11:43:33;20.37;;;8.30;;
46266;SDS011;31998;48.798;15.066;2022-12-22T11:54:02;2.67;;;1.73;;
46266;SDS011;31998;48.798;15.066;2022-12-22T11:56:39;2.17;;;1.97;;
46266;SDS011;31998;48.798;15.066;2022-12-22T12:07:28;7.00;;;2.10;;
46266;SDS011;31998;48.798;15.066;2022-12-22T12:18:20;5.10;;;2.70;;
46266;SDS011;31998;48.798;15.066;2022-12-22T12:27:09;4.63;;;2.90;;
46266;SDS011;31998;48.798;15.066;2022-12-22T12:32:43;4.00;;;1.90;;
46266;SDS011;31998;48.798;15.066;2022-12-22T12:38:00;3.47;;;3.17;;
46266;SDS011;31998;48.798;15.066;2022-12-22T12:40:39;4.43;;;2.80;;
46266;SDS011;31998;48.798;15.066;2022-12-22T12:43:26;3.07;;;2.83;;
46266;SDS011;31998;48.798;15.066;2022-12-22T12:45:52;20.10;;;5.87;;
46266;SDS011;31998;48.798;15.066;2022-12-22T12:50:47;5.53;;;3.60;;
46266;SDS011;31998;48.798;15.066;2022-12-22T12:53:17;6.67;;;2.40;;
46266;SDS011;31998;48.798;15.066;2022-12-22T13:01:02;4.03;;;2.73;;
46266;SDS011;31998;48.798;15.066;2022-12-22T13:03:41;2.93;;;2.03;;
46266;SDS011;31998;48.798;15.066;2022-12-22T13:06:08;6.80;;;2.90;;
46266;SDS011;31998;48.798;15.066;2022-12-22T13:11:29;3.50;;;2.80;;
46266;SDS011;31998;48.798;15.066;2022-12-22T13:13:59;2.97;;;1.40;;
46266;SDS011;31998;48.798;15.066;2022-12-22T13:16:25;2.63;;;1.20;;
46266;SDS011;31998;48.798;15.066;2022-12-22T13:18:54;2.70;;;2.50;;
46266;SDS011;31998;48.798;15.066;2022-12-22T13:21:24;2.60;;;1.00;;
46266;SDS011;31998;48.798;15.066;2022-12-22T13:26:43;8.50;;;2.07;;
46266;SDS011;31998;48.798;15.066;2022-12-22T13:31:50;3.57;;;1.53;;
46266;SDS011;31998;48.798;15.066;2022-12-22T13:34:29;3.13;;;2.37;;
46266;SDS011;31998;48.798;15.066;2022-12-22T13:37:01;2.13;;;2.00;;
46266;SDS011;31998;48.798;15.066;2022-12-22T13:39:40;3.60;;;3.37;;
46266;SDS011;31998;48.798;15.066;2022-12-22T13:42:06;6.40;;;2.67;;
46266;SDS011;31998;48.798;15.066;2022-12-22T13:44:34;2.30;;;1.80;;
46266;SDS011;31998;48.798;15.066;2022-12-22T13:47:03;2.73;;;2.23;;
46266;SDS011;31998;48.798;15.066;2022-12-22T13:49:31;1.40;;;1.30;;
46266;SDS011;31998;48.798;15.066;2022-12-22T13:51:58;4.80;;;1.60;;
46266;SDS011;31998;48.798;15.066;2022-12-22T13:54:31;2.10;;;1.13;;
46266;SDS011;31998;48.798;15.066;2022-12-22T13:57:00;1.53;;;1.43;;
46266;SDS011;31998;48.798;15.066;2022-12-22T13:59:41;2.60;;;2.40;;
46266;SDS011;31998;48.798;15.066;2022-12-22T14:04:37;3.33;;;1.17;;
46266;SDS011;31998;48.798;15.066;2022-12-22T14:07:17;1.00;;;1.00;;
46266;SDS011;31998;48.798;15.066;2022-12-22T14:09:44;4.07;;;1.47;;
46266;SDS011;31998;48.798;15.066;2022-12-22T14:12:12;4.73;;;2.17;;
46266;SDS011;31998;48.798;15.066;2022-12-22T14:14:44;2.57;;;2.10;;
46266;SDS011;31998;48.798;15.066;2022-12-22T14:17:22;2.70;;;2.50;;
46266;SDS011;31998;48.798;15.066;2022-12-22T14:19:48;5.77;;;2.90;;
46266;SDS011;31998;48.798;15.066;2022-12-22T14:22:37;6.63;;;3.10;;
46266;SDS011;31998;48.798;15.066;2022-12-22T14:27:44;4.70;;;3.03;;
46266;SDS011;31998;48.798;15.066;2022-12-22T14:30:46;6.30;;;3.20;;
46266;SDS011;31998;48.798;15.066;2022-12-22T14:33:17;3.80;;;3.20;;
46266;SDS011;31998;48.798;15.066;2022-12-22T14:38:51;2.70;;;1.90;;
46266;SDS011;31998;48.798;15.066;2022-12-22T14:41:26;2.57;;;1.70;;
46266;SDS011;31998;48.798;15.066;2022-12-22T14:44:17;1.90;;;1.70;;
46266;SDS011;31998;48.798;15.066;2022-12-22T14:49:33;1.73;;;1.60;;
46266;SDS011;31998;48.798;15.066;2022-12-22T14:52:06;4.90;;;1.07;;
46266;SDS011;31998;48.798;15.066;2022-12-22T14:54:39;3.80;;;3.10;;
46266;SDS011;31998;48.798;15.066;2022-12-22T14:57:08;2.17;;;1.97;;
46266;SDS011;31998;48.798;15.066;2022-12-22T14:59:37;2.47;;;1.97;;
46266;SDS011;31998;48.798;15.066;2022-12-22T15:02:18;6.27;;;2.37;;
46266;SDS011;31998;48.798;15.066;2022-12-22T15:04:45;2.03;;;1.90;;
46266;SDS011;31998;48.798;15.066;2022-12-22T15:07:19;2.33;;;1.50;;
46266;SDS011;31998;48.798;15.066;2022-12-22T15:09:44;2.90;;;2.10;;
46266;SDS011;31998;48.798;15.066;2022-12-22T15:12:11;2.50;;;2.40;;
46266;SDS011;31998;48.798;15.066;2022-12-22T15:14:39;4.17;;;3.47;;
46266;SDS011;31998;48.798;15.066;2022-12-22T15:17:06;10.83;;;4.33;;
46266;SDS011;31998;48.798;15.066;2022-12-22T15:19:41;5.20;;;4.50;;
46266;SDS011;31998;48.798;15.066;2022-12-22T15:22:06;6.00;;;4.87;;
46266;SDS011;31998;48.798;15.066;2022-12-22T15:24:32;9.30;;;2.20;;
46266;SDS011;31998;48.798;15.066;2022-12-22T15:26:57;1.53;;;1.43;;
46266;SDS011;31998;48.798;15.066;2022-12-22T15:29:23;4.50;;;1.80;;
46266;SDS011;31998;48.798;15.066;2022-12-22T15:31:48;2.30;;;2.20;;
46266;SDS011;31998;48.798;15.066;2022-12-22T15:34:34;2.67;;;2.10;;
46266;SDS011;31998;48.798;15.066;2022-12-22T15:36:59;5.80;;;2.63;;
46266;SDS011;31998;48.798;15.066;2022-12-22T15:39:24;5.80;;;3.00;;
46266;SDS011;31998;48.798;15.066;2022-12-22T15:41:50;3.90;;;2.70;;
46266;SDS011;31998;48.798;15.066;2022-12-22T15:44:15;2.20;;;2.10;;
46266;SDS011;31998;48.798;15.066;2022-12-22T15:46:42;1.33;;;1.20;;
46266;SDS011;31998;48.798;15.066;2022-12-22T15:49:13;1.97;;;1.50;;
46266;SDS011;31998;48.798;15.066;2022-12-22T15:51:43;1.30;;;1.20;;
46266;SDS011;31998;48.798;15.066;2022-12-22T15:54:13;1.20;;;1.10;;
46266;SDS011;31998;48.798;15.066;2022-12-22T15:56:40;1.93;;;1.83;;
46266;SDS011;31998;48.798;15.066;2022-12-22T15:59:08;2.13;;;2.00;;
46266;SDS011;31998;48.798;15.066;2022-12-22T16:01:39;5.13;;;2.13;;
46266;SDS011;31998;48.798;15.066;2022-12-22T16:04:04;2.60;;;2.13;;
46266;SDS011;31998;48.798;15.066;2022-12-22T16:06:29;1.10;;;1.00;;
46266;SDS011;31998;48.798;15.066;2022-12-22T16:08:55;8.90;;;2.30;;
46266;SDS011;31998;48.798;15.066;2022-12-22T16:11:20;2.27;;;2.13;;
46266;SDS011;31998;48.798;15.066;2022-12-22T16:13:46;1.80;;;1.70;;
46266;SDS011;31998;48.798;15.066;2022-12-22T16:16:13;2.93;;;2.63;;
46266;SDS011;31998;48.798;15.066;2022-12-22T16:18:38;2.83;;;2.67;;
46266;SDS011;31998;48.798;15.066;2022-12-22T16:21:10;3.23;;;2.37;;
46266;SDS011;31998;48.798;15.066;2022-12-22T16:23:50;5.83;;;2.87;;
46266;SDS011;31998;48.798;15.066;2022-12-22T16:26:19;3.50;;;1.90;;
46266;SDS011;31998;48.798;15.066;2022-12-22T16:28:45;4.43;;;2.70;;
46266;SDS011;31998;48.798;15.066;2022-12-22T16:31:18;3.10;;;2.50;;
46266;SDS011;31998;48.798;15.066;2022-12-22T16:33:45;3.30;;;1.90;;
46266;SDS011;31998;48.798;15.066;2022-12-22T16:36:11;5.03;;;1.70;;
46266;SDS011;31998;48.798;15.066;2022-12-22T16:38:36;4.97;;;2.37;;
46266;SDS011;31998;48.798;15.066;2022-12-22T16:41:02;3.13;;;1.93;;
46266;SDS011;31998;48.798;15.066;2022-12-22T16:43:32;2.13;;;1.53;;
46266;SDS011;31998;48.798;15.066;2022-12-22T16:46:01;4.23;;;2.13;;
46266;SDS011;31998;48.798;15.066;2022-12-22T16:51:13;2.97;;;2.77;;
46266;SDS011;31998;48.798;15.066;2022-12-22T16:53:42;1.53;;;1.43;;